Clermont, Canada
Current Conditions -  °F | °C
As of 7:00 AM on Friday 19 Dec 2014 (Local Time) from CYBG Reporting Station
Few Clouds Few Clouds  
Wind Chill: -3°   Ceiling: Unl
Heat Index: 12°   Visibility: 25mi
Dew Point:   Wind: 13mph
Humidity: 85%   Direction: 260°W
Pressure: 29.98"   Gusts: NA
Location:  47.68°N, 70.23°W
Report Text: CYBG 191200Z 26011KT 25SM FEW075 M11/M13 A2998 RMK AC1 SLP165
Loading
Personal Weather Stations






























Interactive Weather Map New forecast layout! Learn more

10-Day Weather Forecast

Advertisements
Track Severe Weather on mobile